Time;durP1;ratioP1;P1;durP2;ratioP2;P2;SDS_P1;SDS_P2;PMS_P1;PMS_P2;Temp;Humidity;BMP_temperature;BMP_pressure;BME280_temperature;BME280_humidity;BME280_pressure;Samples;Min_cycle;Max_cycle;Signal;HPM_P1;HPM_P2
2021/05/01 00:02:44;;;;;;;;;;;6.80;99.90;;;;;;10438166;28;19931;-89
2021/05/01 00:07:46;;;;;;;;;;;6.70;99.90;;;;;;10454281;28;19975;-90
2021/05/01 00:12:47;;;;;;;;;;;7.50;99.90;;;;;;10437752;28;20029;-90
2021/05/01 00:17:48;;;;;;;;;;;6.70;99.90;;;;;;10437949;28;20008;-90
2021/05/01 00:22:51;;;;;;;;;;;8.20;99.90;;;;;;10442548;22;19978;-87
2021/05/01 00:27:53;;;;;;;;;;;6.30;99.90;;;;;;10452985;28;20616;-87
2021/05/01 00:32:55;;;;;;;;;;;6.20;99.90;;;;;;10437494;28;20008;-87
2021/05/01 00:37:57;;;;;;;;;;;7.20;99.90;;;;;;10461352;28;19932;-87
2021/05/01 00:42:58;;;;;;;;;;;6.20;99.90;;;;;;10444356;28;19926;-87
2021/05/01 00:47:59;;;;;;;;;;;7.30;99.90;;;;;;10444297;28;19931;-87
2021/05/01 00:53:01;;;;;;;;;;;5.80;99.90;;;;;;10426631;28;20291;-87
2021/05/01 00:58:11;;;;;;;;;;;5.90;99.90;;;;;;10439004;28;20372;-87
2021/05/01 01:03:12;;;;;;;;;;;6.20;99.90;;;;;;10443044;28;19926;-86
2021/05/01 01:08:14;;;;;;;;;;;5.50;99.90;;;;;;10459894;28;20363;-86
2021/05/01 01:13:16;;;;;;;;;;;5.40;99.90;;;;;;10443107;28;19932;-87
2021/05/01 01:18:17;;;;;;;;;;;5.40;99.90;;;;;;10459999;28;20291;-86
2021/05/01 01:23:19;;;;;;;;;;;5.70;99.90;;;;;;10458801;28;19925;-87
2021/05/01 01:28:20;;;;;;;;;;;6.00;99.90;;;;;;10418522;28;19926;-87
2021/05/01 01:33:22;;;;;;;;;;;5.30;99.90;;;;;;10418019;28;20288;-87
2021/05/01 01:38:23;;;;;;;;;;;7.60;99.90;;;;;;10333958;28;19933;-87
2021/05/01 01:43:27;;;;;;;;;;;5.40;99.90;;;;;;10453816;28;20020;-87
2021/05/01 01:48:28;;;;;;;;;;;6.30;99.90;;;;;;10456289;28;19926;-87
2021/05/01 01:53:30;;;;;;;;;;;5.40;99.90;;;;;;10458300;28;19925;-87
2021/05/01 01:58:32;;;;;;;;;;;7.00;99.90;;;;;;10440908;28;20048;-86
2021/05/01 02:03:33;;;;;;;;;;;5.60;99.90;;;;;;10441053;28;19926;-87
2021/05/01 02:08:35;;;;;;;;;;;5.20;99.90;;;;;;10440928;28;19930;-87
2021/05/01 02:13:36;;;;;;;;;;;5.00;99.90;;;;;;10441262;28;19932;-86
2021/05/01 02:18:37;;;;;;;;;;;5.10;99.90;;;;;;10440699;28;19925;-86
2021/05/01 02:23:39;;;;;;;;;;;4.90;99.90;;;;;;10439755;28;19932;-86
2021/05/01 02:28:40;;;;;;;;;;;4.90;99.90;;;;;;10457034;28;19926;-86
2021/05/01 02:33:41;;;;;;;;;;;4.40;99.90;;;;;;10373025;28;19932;-86
2021/05/01 02:38:42;;;;;;;;;;;4.60;99.90;;;;;;10456645;28;20275;-87
2021/05/01 02:43:44;;;;;;;;;;;4.70;99.90;;;;;;10457023;28;20005;-86
2021/05/01 02:48:45;;;;;;;;;;;4.60;99.90;;;;;;10456162;28;19936;-87
2021/05/01 02:53:46;;;;;;;;;;;6.20;99.90;;;;;;10456313;28;20010;-87
2021/05/01 02:58:47;;;;;;;;;;;4.80;99.90;;;;;;10456050;28;20379;-87
2021/05/01 03:03:49;;;;;;;;;;;6.30;99.90;;;;;;10371929;28;20024;-87
2021/05/01 03:08:50;;;;;;;;;;;7.00;99.90;;;;;;10456065;28;19931;-87
2021/05/01 03:13:51;;;;;;;;;;;4.80;99.90;;;;;;10455870;28;19933;-87
2021/05/01 03:18:53;;;;;;;;;;;4.90;99.90;;;;;;10421521;28;20257;-87
2021/05/01 03:23:55;;;;;;;;;;;4.90;99.90;;;;;;10420858;28;20281;-87
2021/05/01 03:28:56;;;;;;;;;;;4.80;99.90;;;;;;10438336;28;19932;-87
2021/05/01 03:33:58;;;;;;;;;;;2.80;99.90;;;;;;10420984;28;19932;-87
2021/05/01 03:38:59;;;;;;;;;;;5.70;99.90;;;;;;10438677;28;19926;-87
2021/05/01 03:44:00;;;;;;;;;;;4.30;99.90;;;;;;10438029;28;19932;-87
2021/05/01 03:49:02;;;;;;;;;;;6.40;99.90;;;;;;10421415;28;19932;-86
2021/05/01 03:54:03;;;;;;;;;;;5.10;99.90;;;;;;10437762;28;20261;-87
2021/05/01 03:59:05;;;;;;;;;;;4.60;99.90;;;;;;10420754;28;19929;-87
2021/05/01 04:04:08;;;;;;;;;;;4.50;99.90;;;;;;10437295;28;19954;-87
2021/05/01 04:09:10;;;;;;;;;;;4.40;99.90;;;;;;10453652;28;19925;-87
2021/05/01 04:14:11;;;;;;;;;;;6.20;99.90;;;;;;10454554;28;19933;-87
2021/05/01 04:19:13;;;;;;;;;;;4.30;99.90;;;;;;10453448;28;19929;-87
2021/05/01 04:24:14;;;;;;;;;;;4.80;99.90;;;;;;10452130;28;20024;-87
2021/05/01 04:29:16;;;;;;;;;;;4.40;99.90;;;;;;10435719;28;19926;-87
2021/05/01 04:34:18;;;;;;;;;;;6.20;99.90;;;;;;10424830;28;20368;-87
2021/05/01 04:39:19;;;;;;;;;;;4.10;99.90;;;;;;10452964;28;19926;-86
2021/05/01 04:44:22;;;;;;;;;;;6.00;99.90;;;;;;10554070;28;20283;-87
2021/05/01 04:49:23;;;;;;;;;;;4.40;99.90;;;;;;10540454;28;19925;-87
2021/05/01 04:54:25;;;;;;;;;;;4.50;99.90;;;;;;10522107;28;19928;-87
2021/05/01 04:59:26;;;;;;;;;;;7.10;99.90;;;;;;10522243;28;19925;-87
2021/05/01 05:04:27;;;;;;;;;;;4.60;99.90;;;;;;10539144;28;19925;-87
2021/05/01 05:09:28;;;;;;;;;;;5.20;99.90;;;;;;10538011;28;20286;-87
2021/05/01 05:14:30;;;;;;;;;;;5.10;99.90;;;;;;10427331;28;20304;-87
2021/05/01 05:19:31;;;;;;;;;;;7.40;99.90;;;;;;10445341;28;19932;-87
2021/05/01 05:24:32;;;;;;;;;;;5.30;99.90;;;;;;10555268;28;19930;-87
2021/05/01 05:29:34;;;;;;;;;;;5.30;99.90;;;;;;10554681;28;19924;-87
2021/05/01 05:34:36;;;;;;;;;;;5.30;99.90;;;;;;10562038;28;19930;-87
2021/05/01 05:39:38;;;;;;;;;;;5.40;99.90;;;;;;10545623;28;19923;-87
2021/05/01 05:44:41;;;;;;;;;;;7.30;99.90;;;;;;10586062;28;20366;-88
2021/05/01 05:49:43;;;;;;;;;;;6.60;99.90;;;;;;10554133;28;20022;-87
2021/05/01 05:54:44;;;;;;;;;;;5.80;99.90;;;;;;10552679;28;19928;-87
2021/05/01 05:59:46;;;;;;;;;;;6.80;99.90;;;;;;10570189;28;19924;-87
2021/05/01 06:04:55;;;;;;;;;;;7.10;99.90;;;;;;10565982;28;19924;-87
2021/05/01 06:10:02;;;;;;;;;;;8.30;99.90;;;;;;10586559;28;20413;-87
2021/05/01 06:15:05;;;;;;;;;;;8.70;99.90;;;;;;10586530;28;19924;-87
2021/05/01 06:20:07;;;;;;;;;;;9.00;99.90;;;;;;10585641;28;19924;-88
2021/05/01 06:25:10;;;;;;;;;;;9.80;99.90;;;;;;10587306;28;19924;-88
2021/05/01 06:30:12;;;;;;;;;;;8.60;99.90;;;;;;10586098;28;19924;-87
2021/05/01 06:58:31;;;;;;;;;;;10.40;99.90;;;;;;10619658;27;19927;-94
2021/05/01 07:03:39;;;;;;;;;;;10.80;99.90;;;;;;10612129;27;19929;-93
2021/05/01 07:08:40;;;;;;;;;;;11.60;99.90;;;;;;10628696;27;20369;-94
2021/05/01 07:13:42;;;;;;;;;;;11.00;99.90;;;;;;10627404;27;20290;-94
2021/05/01 07:18:43;;;;;;;;;;;11.60;99.90;;;;;;10637789;27;20022;-94
2021/05/01 07:23:45;;;;;;;;;;;11.90;99.90;;;;;;10629027;27;20018;-94
2021/05/01 07:28:49;;;;;;;;;;;11.90;99.90;;;;;;10628121;27;20026;-94
2021/05/01 07:33:55;;;;;;;;;;;12.40;99.90;;;;;;10629566;27;19924;-95
2021/05/01 07:38:58;;;;;;;;;;;10.90;99.90;;;;;;10627941;27;19930;-95
2021/05/01 07:43:59;;;;;;;;;;;10.50;99.90;;;;;;10609334;27;19946;-94
2021/05/01 07:49:01;;;;;;;;;;;11.60;99.90;;;;;;10610109;27;19930;-94
2021/05/01 07:54:03;;;;;;;;;;;11.10;99.90;;;;;;10610707;27;19923;-93
2021/05/01 07:59:05;;;;;;;;;;;11.60;99.90;;;;;;10625767;27;19958;-90
2021/05/01 08:04:06;;;;;;;;;;;11.00;99.90;;;;;;10585465;27;19931;-93
2021/05/01 08:09:07;;;;;;;;;;;12.40;99.90;;;;;;10595577;27;20014;-93
2021/05/01 08:14:11;;;;;;;;;;;;;;;;;;10623828;27;19923;-93
2021/05/01 08:19:13;;;;;;;;;;;13.50;99.90;;;;;;10609283;27;19946;-89
2021/05/01 08:24:15;;;;;;;;;;;13.40;98.90;;;;;;10588364;27;20271;-92
2021/05/01 08:29:16;;;;;;;;;;;13.40;99.90;;;;;;10565626;28;19934;-91
2021/05/01 08:34:17;;;;;;;;;;;14.20;98.50;;;;;;10565331;28;19930;-92
2021/05/01 08:39:18;;;;;;;;;;;13.30;98.60;;;;;;10564971;28;19923;-92
2021/05/01 08:44:20;;;;;;;;;;;14.50;99.90;;;;;;10595559;28;19924;-92
2021/05/01 08:49:21;;;;;;;;;;;14.00;98.30;;;;;;10625407;28;19923;-92
2021/05/01 08:54:23;;;;;;;;;;;12.50;99.40;;;;;;10609829;27;19930;-92
2021/05/01 08:59:24;;;;;;;;;;;14.40;98.00;;;;;;10594495;27;20358;-92
2021/05/01 09:04:42;;;;;;;;;;;14.50;91.90;;;;;;10573089;28;20270;-90
2021/05/01 09:09:51;;;;;;;;;;;13.80;95.00;;;;;;10571952;28;20379;-89
2021/05/01 09:14:59;;;;;;;;;;;14.60;95.70;;;;;;10602150;27;20386;-90
2021/05/01 09:20:05;;;;;;;;;;;15.70;91.60;;;;;;10611408;27;19923;-90
2021/05/01 09:25:07;;;;;;;;;;;15.90;92.40;;;;;;10629744;27;19934;-90
2021/05/01 09:30:25;;;;;;;;;;;13.60;95.00;;;;;;10616884;27;19973;-89
2021/05/01 09:35:27;;;;;;;;;;;14.00;87.50;;;;;;10596116;27;19924;-88
2021/05/01 09:40:31;;;;;;;;;;;14.30;90.50;;;;;;10571132;28;20098;-89
2021/05/01 09:45:33;;;;;;;;;;;15.90;90.30;;;;;;10570362;28;19930;-93
2021/05/01 09:50:35;;;;;;;;;;;16.80;81.00;;;;;;10592385;27;19937;-89
2021/05/01 09:55:54;;;;;;;;;;;15.20;83.40;;;;;;10579891;27;19934;-89
2021/05/01 10:01:08;;;;;;;;;;;15.70;78.70;;;;;;10629346;27;19934;-91
2021/05/01 10:06:11;;;;;;;;;;;13.70;90.20;;;;;;10610696;27;19923;-91
2021/05/01 10:11:13;;;;;;;;;;;12.90;90.40;;;;;;10630457;27;19930;-90
2021/05/01 10:16:19;;;;;;;;;;;12.50;92.50;;;;;;10629440;27;19967;-90
2021/05/01 10:21:24;;;;;;;;;;;12.70;93.30;;;;;;10610832;27;20014;-90
2021/05/01 10:26:25;;;;;;;;;;;14.90;92.60;;;;;;10604936;27;19924;-90
2021/05/01 10:31:27;;;;;;;;;;;15.70;92.20;;;;;;10593634;27;19924;-90
2021/05/01 10:36:31;;;;;;;;;;;15.90;84.30;;;;;;10610248;27;19992;-90
2021/05/01 10:41:33;;;;;;;;;;;16.90;67.50;;;;;;10610056;27;19923;-89
2021/05/01 10:46:36;;;;;;;;;;;15.80;61.10;;;;;;10610313;27;19960;-89
2021/05/01 10:51:37;;;;;;;;;;;13.80;70.10;;;;;;10627343;27;19955;-89
2021/05/01 10:56:46;;;;;;;;;;;13.20;93.70;;;;;;10567901;28;20007;-89
2021/05/01 11:01:51;;;;;;;;;;;13.20;94.60;;;;;;10586617;28;19923;-90
2021/05/01 11:06:56;;;;;;;;;;;13.00;95.20;;;;;;10574593;28;19977;-88
2021/05/01 11:11:58;;;;;;;;;;;13.50;95.20;;;;;;10585321;28;19924;-89
2021/05/01 11:17:02;;;;;;;;;;;14.30;96.30;;;;;;10583934;28;19930;-89
2021/05/01 11:22:06;;;;;;;;;;;16.00;80.50;;;;;;10566592;28;19924;-89
2021/05/01 11:27:07;;;;;;;;;;;14.20;81.60;;;;;;10584871;28;19924;-89
2021/05/01 11:32:09;;;;;;;;;;;13.30;78.50;;;;;;10584642;28;19923;-88
2021/05/01 11:37:11;;;;;;;;;;;12.60;84.70;;;;;;10606157;27;19930;-89
2021/05/01 11:42:17;;;;;;;;;;;12.80;88.30;;;;;;10607913;27;19983;-88
2021/05/01 11:47:20;;;;;;;;;;;12.30;91.90;;;;;;10626241;27;20377;-89
2021/05/01 11:52:40;;;;;;;;;;;11.80;93.30;;;;;;10625758;27;19930;-88
2021/05/01 11:57:46;;;;;;;;;;;11.90;94.70;;;;;;10666534;27;19930;-88
2021/05/01 12:02:48;;;;;;;;;;;12.10;95.40;;;;;;10665915;27;19945;-88
2021/05/01 12:08:09;;;;;;;;;;;12.50;94.10;;;;;;10666768;27;20029;-88
2021/05/01 12:13:14;;;;;;;;;;;13.50;82.00;;;;;;10667091;27;19923;-88
2021/05/01 12:18:16;;;;;;;;;;;14.00;76.00;;;;;;10627076;27;19941;-89
2021/05/01 12:23:36;;;;;;;;;;;14.90;77.30;;;;;;10624404;27;19923;-90
2021/05/01 12:28:39;;;;;;;;;;;15.50;66.00;;;;;;10607148;27;19927;-90
2021/05/01 12:33:42;;;;;;;;;;;15.10;73.70;;;;;;10614513;27;19923;-89
2021/05/01 12:38:47;;;;;;;;;;;13.40;67.20;;;;;;10619505;27;19967;-89
2021/05/01 12:44:08;;;;;;;;;;;13.30;82.20;;;;;;10635220;27;19930;-89
2021/05/01 12:49:20;;;;;;;;;;;13.10;84.90;;;;;;10627167;22;19923;-87
2021/05/01 12:54:21;;;;;;;;;;;13.90;79.90;;;;;;10511268;28;19964;-86
2021/05/01 12:59:23;;;;;;;;;;;16.20;80.50;;;;;;10510819;28;19924;-87
2021/05/01 13:04:25;;;;;;;;;;;14.00;78.80;;;;;;10324083;28;19926;-87
2021/05/01 13:09:33;;;;;;;;;;;14.30;79.20;;;;;;10340209;28;19930;-89
2021/05/01 13:14:44;;;;;;;;;;;13.70;75.30;;;;;;10339627;28;20373;-87
2021/05/01 13:19:45;;;;;;;;;;;14.80;79.30;;;;;;10338908;28;20025;-87
2021/05/01 13:24:57;;;;;;;;;;;15.80;70.70;;;;;;10424245;28;20372;-87
2021/05/01 13:30:06;;;;;;;;;;;15.80;63.30;;;;;;10407669;28;19925;-87
2021/05/01 13:35:09;;;;;;;;;;;15.90;68.50;;;;;;10423971;28;19926;-87
2021/05/01 13:40:38;;;;;;;;;;;15.80;71.80;;;;;;10339605;28;19926;-87
2021/05/01 13:45:40;;;;;;;;;;;15.60;64.10;;;;;;10332514;28;19961;-87
2021/05/01 13:50:46;;;;;;;;;;;16.00;64.30;;;;;;10332219;28;19926;-87
2021/05/01 13:55:48;;;;;;;;;;;16.20;65.70;;;;;;10316637;28;19930;-86
2021/05/01 14:00:50;;;;;;;;;;;15.90;67.30;;;;;;10316453;28;19930;-87
2021/05/01 14:05:52;;;;;;;;;;;14.80;71.30;;;;;;10332880;28;19926;-87
2021/05/01 14:10:55;;;;;;;;;;;14.90;70.30;;;;;;10399368;28;20369;-88
2021/05/01 14:15:57;;;;;;;;;;;14.70;71.20;;;;;;10400338;28;19926;-87
2021/05/01 14:21:00;;;;;;;;;;;15.30;68.00;;;;;;10332927;28;19926;-86
2021/05/01 14:26:01;;;;;;;;;;;15.60;67.60;;;;;;10314764;28;19948;-86
2021/05/01 14:36:04;;;;;;;;;;;15.90;68.10;;;;;;10386743;28;19932;-87
2021/05/01 14:41:07;;;;;;;;;;;15.70;68.60;;;;;;10331073;28;19925;-86
2021/05/01 14:46:22;;;;;;;;;;;15.30;64.30;;;;;;10332907;28;20364;-86
2021/05/01 14:51:25;;;;;;;;;;;15.30;72.00;;;;;;10314257;28;19926;-86
2021/05/01 14:56:26;;;;;;;;;;;15.20;67.00;;;;;;10330425;28;20410;-85
2021/05/01 15:01:28;;;;;;;;;;;14.40;70.60;;;;;;10330501;28;19936;-85
2021/05/01 15:06:29;;;;;;;;;;;14.00;72.20;;;;;;10330568;28;19969;-85
2021/05/01 15:11:31;;;;;;;;;;;14.40;69.60;;;;;;10331362;28;19933;-85
2021/05/01 15:16:53;;;;;;;;;;;14.20;69.70;;;;;;10313665;28;19948;-85
2021/05/01 15:22:00;;;;;;;;;;;15.10;70.60;;;;;;10336144;28;19926;-84
2021/05/01 15:27:05;;;;;;;;;;;15.50;68.40;;;;;;10290996;28;19960;-86
2021/05/01 15:32:08;;;;;;;;;;;15.60;65.40;;;;;;10357314;28;19926;-85
2021/05/01 15:37:10;;;;;;;;;;;15.60;67.60;;;;;;10389427;28;20411;-86
2021/05/01 15:42:12;;;;;;;;;;;15.50;68.50;;;;;;10312691;28;19933;-86
2021/05/01 15:47:14;;;;;;;;;;;14.90;70.50;;;;;;10312330;28;20320;-85
2021/05/01 15:52:16;;;;;;;;;;;14.80;71.80;;;;;;10312107;28;20385;-85
2021/05/01 15:57:25;;;;;;;;;;;14.70;71.20;;;;;;10479824;28;19930;-85
2021/05/01 16:02:26;;;;;;;;;;;14.10;71.90;;;;;;10423819;28;19926;-85
2021/05/01 16:07:28;;;;;;;;;;;14.50;71.60;;;;;;10311178;28;19925;-85
2021/05/01 16:12:30;;;;;;;;;;;14.60;71.80;;;;;;10329634;28;19930;-85
2021/05/01 16:17:31;;;;;;;;;;;14.50;72.00;;;;;;10329369;28;19925;-86
2021/05/01 16:22:33;;;;;;;;;;;14.10;74.60;;;;;;10311403;28;19933;-86
2021/05/01 16:27:35;;;;;;;;;;;14.00;75.80;;;;;;10396279;28;19932;-86
2021/05/01 16:32:37;;;;;;;;;;;13.80;77.20;;;;;;10328348;28;19930;-86
2021/05/01 16:37:39;;;;;;;;;;;13.80;73.00;;;;;;10392899;28;19929;-86
2021/05/01 16:42:40;;;;;;;;;;;13.40;75.20;;;;;;10309393;28;19932;-86
2021/05/01 16:47:47;;;;;;;;;;;13.30;74.60;;;;;;10326498;28;19930;-86
2021/05/01 16:52:48;;;;;;;;;;;13.00;74.70;;;;;;10324476;28;20399;-86
2021/05/01 16:57:50;;;;;;;;;;;13.00;76.80;;;;;;10325629;28;20269;-85
2021/05/01 17:02:51;;;;;;;;;;;12.60;76.10;;;;;;10308590;28;19934;-86
2021/05/01 17:07:52;;;;;;;;;;;12.80;77.60;;;;;;10308076;28;19975;-86
2021/05/01 17:12:54;;;;;;;;;;;12.50;79.70;;;;;;10309115;28;19926;-85
2021/05/01 17:17:55;;;;;;;;;;;12.40;79.20;;;;;;10330995;28;19930;-86
2021/05/01 17:22:57;;;;;;;;;;;12.30;79.50;;;;;;10332084;28;19930;-86
2021/05/01 17:27:58;;;;;;;;;;;12.20;79.20;;;;;;10314871;28;20395;-86
2021/05/01 17:33:00;;;;;;;;;;;12.00;80.60;;;;;;10333765;28;19926;-86
2021/05/01 17:38:01;;;;;;;;;;;11.90;84.00;;;;;;10316013;28;19926;-86
2021/05/01 17:43:02;;;;;;;;;;;11.90;83.50;;;;;;10314642;28;19933;-86
2021/05/01 17:48:04;;;;;;;;;;;11.70;83.10;;;;;;10316175;28;19926;-86
2021/05/01 17:53:06;;;;;;;;;;;11.60;84.90;;;;;;10315163;28;20316;-86
2021/05/01 17:58:08;;;;;;;;;;;11.50;84.60;;;;;;10315340;28;19936;-86
2021/05/01 18:03:30;;;;;;;;;;;11.40;89.10;;;;;;10331439;28;20376;-86
2021/05/01 18:08:32;;;;;;;;;;;11.20;89.00;;;;;;10332700;28;19926;-86
2021/05/01 18:13:37;;;;;;;;;;;11.00;89.30;;;;;;10397922;28;19930;-86
2021/05/01 18:18:39;;;;;;;;;;;11.40;90.60;;;;;;10332571;28;19926;-86
2021/05/01 18:23:44;;;;;;;;;;;10.80;91.00;;;;;;10335577;28;19925;-86
2021/05/01 18:28:45;;;;;;;;;;;10.70;92.30;;;;;;10326531;28;19926;-86
2021/05/01 18:33:47;;;;;;;;;;;10.50;92.60;;;;;;10315018;28;19930;-86
2021/05/01 18:38:50;;;;;;;;;;;10.40;93.30;;;;;;10333146;28;19980;-86
2021/05/01 18:43:52;;;;;;;;;;;10.20;94.10;;;;;;10331181;28;20373;-86
2021/05/01 18:48:53;;;;;;;;;;;10.00;95.30;;;;;;10332255;28;19926;-86
2021/05/01 18:53:54;;;;;;;;;;;10.10;96.40;;;;;;10559661;22;19930;-87
2021/05/01 18:58:56;;;;;;;;;;;9.70;96.20;;;;;;10586073;28;20269;-87
2021/05/01 19:03:57;;;;;;;;;;;9.60;97.60;;;;;;10567577;28;19923;-87
2021/05/01 19:08:59;;;;;;;;;;;9.40;98.70;;;;;;10566920;28;20023;-87
2021/05/01 19:14:04;;;;;;;;;;;9.20;99.50;;;;;;10583988;28;19924;-87
2021/05/01 19:19:06;;;;;;;;;;;9.10;99.90;;;;;;10578848;27;19923;-87
2021/05/01 19:24:09;;;;;;;;;;;8.90;99.90;;;;;;10625632;27;20369;-87
2021/05/01 19:29:11;;;;;;;;;;;8.80;99.90;;;;;;10573208;28;20393;-87
2021/05/01 19:34:12;;;;;;;;;;;8.60;99.90;;;;;;10582453;28;19975;-87
2021/05/01 19:39:14;;;;;;;;;;;8.60;99.90;;;;;;10564345;28;19923;-87
2021/05/01 19:44:15;;;;;;;;;;;8.50;99.90;;;;;;10579973;28;19924;-87
2021/05/01 19:49:17;;;;;;;;;;;8.60;99.90;;;;;;10581649;28;19923;-87
2021/05/01 19:54:19;;;;;;;;;;;8.20;99.90;;;;;;10528165;28;20046;-87
2021/05/01 19:59:20;;;;;;;;;;;8.10;99.90;;;;;;10547218;28;19930;-87
2021/05/01 20:04:21;;;;;;;;;;;8.00;99.90;;;;;;10562909;28;20011;-87
2021/05/01 20:09:23;;;;;;;;;;;8.10;99.90;;;;;;10563464;28;20458;-87
2021/05/01 20:14:25;;;;;;;;;;;9.40;99.90;;;;;;10582227;28;19923;-87
2021/05/01 20:19:26;;;;;;;;;;;7.70;99.90;;;;;;10563341;28;20377;-87
2021/05/01 20:24:27;;;;;;;;;;;7.50;99.90;;;;;;10546776;28;19928;-87
2021/05/01 20:29:28;;;;;;;;;;;7.40;99.90;;;;;;10563896;28;20019;-87
2021/05/01 20:34:30;;;;;;;;;;;7.70;99.90;;;;;;10582490;28;19946;-87
2021/05/01 20:39:31;;;;;;;;;;;7.10;99.90;;;;;;10582718;28;19924;-87
2021/05/01 20:44:32;;;;;;;;;;;7.10;99.90;;;;;;10583087;28;20014;-87
2021/05/01 20:49:34;;;;;;;;;;;8.00;99.90;;;;;;10562513;28;19924;-87
2021/05/01 20:54:35;;;;;;;;;;;7.10;99.90;;;;;;10494455;28;19930;-87
2021/05/01 20:59:36;;;;;;;;;;;6.80;99.90;;;;;;10572653;28;19924;-87
2021/05/01 21:04:38;;;;;;;;;;;7.00;99.90;;;;;;10554257;28;20370;-87
2021/05/01 21:09:40;;;;;;;;;;;7.50;99.90;;;;;;10531997;28;21254;-87
2021/05/01 21:14:42;;;;;;;;;;;6.40;99.90;;;;;;10530225;28;19931;-87
2021/05/01 21:19:43;;;;;;;;;;;6.40;99.90;;;;;;10567808;28;19984;-86
2021/05/01 21:24:44;;;;;;;;;;;8.10;99.90;;;;;;10570325;28;19923;-87
2021/05/01 21:29:46;;;;;;;;;;;6.50;99.90;;;;;;10571584;28;19930;-87
2021/05/01 21:34:48;;;;;;;;;;;6.40;99.90;;;;;;10572687;28;19924;-87
2021/05/01 21:39:49;;;;;;;;;;;6.30;99.90;;;;;;10549944;28;19934;-87
2021/05/01 21:44:51;;;;;;;;;;;6.50;99.90;;;;;;10528806;28;19947;-87
2021/05/01 21:49:53;;;;;;;;;;;6.50;99.90;;;;;;10544985;28;19924;-87
2021/05/01 21:54:56;;;;;;;;;;;6.20;99.90;;;;;;10556852;28;19930;-87
2021/05/01 21:59:57;;;;;;;;;;;6.10;99.90;;;;;;10570347;28;19924;-87
2021/05/01 22:04:58;;;;;;;;;;;6.30;99.90;;;;;;10568697;28;20300;-87
2021/05/01 22:09:59;;;;;;;;;;;5.90;99.90;;;;;;10586863;28;19982;-87
2021/05/01 22:15:00;;;;;;;;;;;7.90;99.90;;;;;;10586929;28;19924;-87
2021/05/01 22:20:02;;;;;;;;;;;6.20;99.90;;;;;;10585987;28;19930;-87
2021/05/01 22:25:09;;;;;;;;;;;6.10;99.90;;;;;;10568806;28;20011;-86
2021/05/01 22:30:11;;;;;;;;;;;6.00;99.90;;;;;;10568576;28;19923;-87
2021/05/01 22:35:12;;;;;;;;;;;5.90;99.90;;;;;;10586960;28;19931;-87
2021/05/01 22:40:14;;;;;;;;;;;5.80;99.90;;;;;;10585104;28;20285;-87
2021/05/01 22:45:16;;;;;;;;;;;6.00;99.90;;;;;;10568942;28;19930;-87
2021/05/01 22:50:17;;;;;;;;;;;7.80;99.90;;;;;;10586269;28;19931;-87
2021/05/01 22:55:19;;;;;;;;;;;5.90;99.90;;;;;;10586113;28;19935;-87
2021/05/01 23:00:20;;;;;;;;;;;6.70;99.90;;;;;;10568046;28;19924;-87
2021/05/01 23:05:22;;;;;;;;;;;5.90;99.90;;;;;;10585897;28;19930;-87
2021/05/01 23:10:23;;;;;;;;;;;6.70;99.90;;;;;;10567568;28;19924;-87
2021/05/01 23:15:25;;;;;;;;;;;7.90;99.90;;;;;;10566879;28;19923;-87
2021/05/01 23:20:27;;;;;;;;;;;6.00;99.90;;;;;;10585119;28;19930;-87
2021/05/01 23:25:30;;;;;;;;;;;6.20;99.90;;;;;;10566002;28;20290;-87
2021/05/01 23:30:33;;;;;;;;;;;7.50;99.90;;;;;;10583785;28;20018;-87
2021/05/01 23:35:34;;;;;;;;;;;6.10;99.90;;;;;;10583614;28;19930;-87
2021/05/01 23:40:35;;;;;;;;;;;6.10;99.90;;;;;;10566491;28;19930;-87
2021/05/01 23:45:37;;;;;;;;;;;6.00;99.90;;;;;;10584178;28;19931;-87
2021/05/01 23:50:39;;;;;;;;;;;7.00;99.90;;;;;;10541662;28;19928;-87
2021/05/01 23:55:41;;;;;;;;;;;6.30;99.90;;;;;;10522220;28;20461;-87
